sensor_id;sensor_type;location;lat;lon;timestamp;P1;durP1;ratioP1;P2;durP2;ratioP2
65031;SDS011;51593;55.714;37.436;2022-12-18T00:00:31;21.10;;;10.80;;
65031;SDS011;51593;55.714;37.436;2022-12-18T00:02:57;23.20;;;9.82;;
65031;SDS011;51593;55.714;37.436;2022-12-18T00:05:24;19.98;;;9.70;;
65031;SDS011;51593;55.714;37.436;2022-12-18T00:07:50;29.23;;;9.30;;
65031;SDS011;51593;55.714;37.436;2022-12-18T00:10:15;24.42;;;10.38;;
65031;SDS011;51593;55.714;37.436;2022-12-18T00:12:41;18.33;;;9.55;;
65031;SDS011;51593;55.714;37.436;2022-12-18T00:15:07;18.67;;;9.23;;
65031;SDS011;51593;55.714;37.436;2022-12-18T00:17:33;20.13;;;9.23;;
65031;SDS011;51593;55.714;37.436;2022-12-18T00:20:01;18.73;;;9.32;;
65031;SDS011;51593;55.714;37.436;2022-12-18T00:22:29;21.88;;;9.98;;
65031;SDS011;51593;55.714;37.436;2022-12-18T00:24:54;16.65;;;9.15;;
65031;SDS011;51593;55.714;37.436;2022-12-18T00:27:20;20.30;;;9.50;;
65031;SDS011;51593;55.714;37.436;2022-12-18T00:29:46;18.00;;;8.70;;
65031;SDS011;51593;55.714;37.436;2022-12-18T00:32:13;17.48;;;8.75;;
65031;SDS011;51593;55.714;37.436;2022-12-18T00:34:39;16.83;;;9.40;;
65031;SDS011;51593;55.714;37.436;2022-12-18T00:37:04;18.92;;;8.80;;
65031;SDS011;51593;55.714;37.436;2022-12-18T00:39:30;17.23;;;9.07;;
65031;SDS011;51593;55.714;37.436;2022-12-18T00:41:56;15.68;;;8.52;;
65031;SDS011;51593;55.714;37.436;2022-12-18T00:44:40;17.05;;;9.07;;
65031;SDS011;51593;55.714;37.436;2022-12-18T00:47:06;17.00;;;8.27;;
65031;SDS011;51593;55.714;37.436;2022-12-18T00:49:32;17.58;;;9.13;;
65031;SDS011;51593;55.714;37.436;2022-12-18T00:51:58;16.25;;;8.40;;
65031;SDS011;51593;55.714;37.436;2022-12-18T00:54:23;12.20;;;5.80;;
65031;SDS011;51593;55.714;37.436;2022-12-18T00:56:49;18.73;;;8.18;;
65031;SDS011;51593;55.714;37.436;2022-12-18T00:59:15;17.77;;;8.45;;
65031;SDS011;51593;55.714;37.436;2022-12-18T01:01:42;16.33;;;8.98;;
65031;SDS011;51593;55.714;37.436;2022-12-18T01:04:07;17.60;;;9.23;;
65031;SDS011;51593;55.714;37.436;2022-12-18T01:06:33;16.35;;;9.50;;
65031;SDS011;51593;55.714;37.436;2022-12-18T01:09:00;16.25;;;8.30;;
65031;SDS011;51593;55.714;37.436;2022-12-18T01:11:26;14.60;;;7.07;;
65031;SDS011;51593;55.714;37.436;2022-12-18T01:13:52;15.88;;;8.57;;
65031;SDS011;51593;55.714;37.436;2022-12-18T01:16:21;18.90;;;8.80;;
65031;SDS011;51593;55.714;37.436;2022-12-18T01:18:53;14.40;;;6.65;;
65031;SDS011;51593;55.714;37.436;2022-12-18T01:21:19;14.75;;;7.63;;
65031;SDS011;51593;55.714;37.436;2022-12-18T01:23:46;17.80;;;8.68;;
65031;SDS011;51593;55.714;37.436;2022-12-18T01:26:15;13.07;;;6.28;;
65031;SDS011;51593;55.714;37.436;2022-12-18T01:28:42;16.88;;;8.52;;
65031;SDS011;51593;55.714;37.436;2022-12-18T01:31:13;17.00;;;8.57;;
65031;SDS011;51593;55.714;37.436;2022-12-18T01:33:43;16.73;;;7.95;;
65031;SDS011;51593;55.714;37.436;2022-12-18T01:36:17;14.15;;;7.93;;
65031;SDS011;51593;55.714;37.436;2022-12-18T01:38:50;15.18;;;7.20;;
65031;SDS011;51593;55.714;37.436;2022-12-18T01:41:19;14.43;;;7.32;;
65031;SDS011;51593;55.714;37.436;2022-12-18T01:43:49;13.48;;;7.05;;
65031;SDS011;51593;55.714;37.436;2022-12-18T01:46:19;15.95;;;8.52;;
65031;SDS011;51593;55.714;37.436;2022-12-18T01:48:47;15.77;;;7.22;;
65031;SDS011;51593;55.714;37.436;2022-12-18T01:51:14;13.52;;;7.68;;
65031;SDS011;51593;55.714;37.436;2022-12-18T01:53:41;13.25;;;6.75;;
65031;SDS011;51593;55.714;37.436;2022-12-18T01:56:07;15.43;;;7.32;;
65031;SDS011;51593;55.714;37.436;2022-12-18T01:58:37;14.40;;;8.05;;
65031;SDS011;51593;55.714;37.436;2022-12-18T02:01:07;15.40;;;7.60;;
65031;SDS011;51593;55.714;37.436;2022-12-18T02:03:33;18.15;;;7.53;;
65031;SDS011;51593;55.714;37.436;2022-12-18T02:06:01;16.23;;;7.18;;
65031;SDS011;51593;55.714;37.436;2022-12-18T02:08:39;12.57;;;6.45;;
65031;SDS011;51593;55.714;37.436;2022-12-18T02:14:19;12.00;;;6.45;;
65031;SDS011;51593;55.714;37.436;2022-12-18T02:22:37;13.48;;;6.43;;
65031;SDS011;51593;55.714;37.436;2022-12-18T02:28:09;15.38;;;6.70;;
65031;SDS011;51593;55.714;37.436;2022-12-18T02:30:37;14.63;;;7.78;;
65031;SDS011;51593;55.714;37.436;2022-12-18T02:33:05;13.48;;;7.53;;
65031;SDS011;51593;55.714;37.436;2022-12-18T02:35:32;14.40;;;7.65;;
65031;SDS011;51593;55.714;37.436;2022-12-18T02:38:00;16.90;;;8.25;;
65031;SDS011;51593;55.714;37.436;2022-12-18T02:40:29;12.88;;;6.97;;
65031;SDS011;51593;55.714;37.436;2022-12-18T02:43:07;14.85;;;7.55;;
65031;SDS011;51593;55.714;37.436;2022-12-18T02:45:36;14.48;;;7.38;;
65031;SDS011;51593;55.714;37.436;2022-12-18T02:48:11;13.80;;;7.28;;
65031;SDS011;51593;55.714;37.436;2022-12-18T02:50:40;14.38;;;7.55;;
65031;SDS011;51593;55.714;37.436;2022-12-18T02:53:24;13.40;;;7.07;;
65031;SDS011;51593;55.714;37.436;2022-12-18T02:56:09;16.45;;;7.35;;
65031;SDS011;51593;55.714;37.436;2022-12-18T03:01:34;16.77;;;7.80;;
65031;SDS011;51593;55.714;37.436;2022-12-18T03:04:46;11.15;;;6.07;;
65031;SDS011;51593;55.714;37.436;2022-12-18T03:06:56;15.70;;;7.22;;
65031;SDS011;51593;55.714;37.436;2022-12-18T03:09:43;13.40;;;5.93;;
65031;SDS011;51593;55.714;37.436;2022-12-18T03:12:32;15.60;;;7.65;;
65031;SDS011;51593;55.714;37.436;2022-12-18T03:15:08;9.65;;;5.18;;
65031;SDS011;51593;55.714;37.436;2022-12-18T03:17:36;12.35;;;6.47;;
65031;SDS011;51593;55.714;37.436;2022-12-18T03:20:07;12.35;;;5.95;;
65031;SDS011;51593;55.714;37.436;2022-12-18T03:22:38;13.13;;;6.82;;
65031;SDS011;51593;55.714;37.436;2022-12-18T03:25:05;12.23;;;6.68;;
65031;SDS011;51593;55.714;37.436;2022-12-18T03:27:33;11.15;;;6.00;;
65031;SDS011;51593;55.714;37.436;2022-12-18T03:30:07;13.13;;;7.10;;
65031;SDS011;51593;55.714;37.436;2022-12-18T03:32:47;11.43;;;6.03;;
65031;SDS011;51593;55.714;37.436;2022-12-18T03:35:22;10.65;;;5.00;;
65031;SDS011;51593;55.714;37.436;2022-12-18T03:37:51;11.13;;;5.82;;
65031;SDS011;51593;55.714;37.436;2022-12-18T03:40:17;11.73;;;5.55;;
65031;SDS011;51593;55.714;37.436;2022-12-18T03:45:22;12.82;;;6.22;;
65031;SDS011;51593;55.714;37.436;2022-12-18T03:47:53;14.73;;;6.57;;
65031;SDS011;51593;55.714;37.436;2022-12-18T03:52:57;12.02;;;5.95;;
65031;SDS011;51593;55.714;37.436;2022-12-18T03:55:50;9.52;;;5.10;;
65031;SDS011;51593;55.714;37.436;2022-12-18T03:58:18;12.02;;;6.05;;
65031;SDS011;51593;55.714;37.436;2022-12-18T04:00:53;12.75;;;6.10;;
65031;SDS011;51593;55.714;37.436;2022-12-18T04:03:21;11.77;;;5.75;;
65031;SDS011;51593;55.714;37.436;2022-12-18T04:05:49;12.23;;;6.18;;
65031;SDS011;51593;55.714;37.436;2022-12-18T04:08:19;13.00;;;6.40;;
65031;SDS011;51593;55.714;37.436;2022-12-18T04:10:55;11.52;;;5.88;;
65031;SDS011;51593;55.714;37.436;2022-12-18T04:13:27;12.35;;;6.57;;
65031;SDS011;51593;55.714;37.436;2022-12-18T04:15:54;13.77;;;6.68;;
65031;SDS011;51593;55.714;37.436;2022-12-18T04:18:22;10.45;;;5.65;;
65031;SDS011;51593;55.714;37.436;2022-12-18T04:20:48;11.40;;;5.78;;
65031;SDS011;51593;55.714;37.436;2022-12-18T04:23:16;12.45;;;6.28;;
65031;SDS011;51593;55.714;37.436;2022-12-18T04:25:42;12.75;;;6.63;;
65031;SDS011;51593;55.714;37.436;2022-12-18T04:28:11;10.88;;;5.80;;
65031;SDS011;51593;55.714;37.436;2022-12-18T04:30:38;13.10;;;6.15;;
65031;SDS011;51593;55.714;37.436;2022-12-18T04:33:07;14.10;;;5.47;;
65031;SDS011;51593;55.714;37.436;2022-12-18T04:35:35;10.27;;;5.55;;
65031;SDS011;51593;55.714;37.436;2022-12-18T04:38:00;10.52;;;5.28;;
65031;SDS011;51593;55.714;37.436;2022-12-18T04:40:26;8.60;;;4.45;;
65031;SDS011;51593;55.714;37.436;2022-12-18T04:42:52;9.73;;;4.95;;
65031;SDS011;51593;55.714;37.436;2022-12-18T04:45:18;11.05;;;5.60;;
65031;SDS011;51593;55.714;37.436;2022-12-18T04:47:44;8.57;;;4.65;;
65031;SDS011;51593;55.714;37.436;2022-12-18T04:50:10;10.35;;;5.35;;
65031;SDS011;51593;55.714;37.436;2022-12-18T04:52:35;12.40;;;5.75;;
65031;SDS011;51593;55.714;37.436;2022-12-18T04:55:01;11.20;;;5.75;;
65031;SDS011;51593;55.714;37.436;2022-12-18T04:57:29;12.57;;;6.45;;
65031;SDS011;51593;55.714;37.436;2022-12-18T04:59:54;13.45;;;5.93;;
65031;SDS011;51593;55.714;37.436;2022-12-18T05:02:20;11.57;;;5.95;;
65031;SDS011;51593;55.714;37.436;2022-12-18T05:04:46;12.57;;;6.10;;
65031;SDS011;51593;55.714;37.436;2022-12-18T05:07:12;11.57;;;6.15;;
65031;SDS011;51593;55.714;37.436;2022-12-18T05:09:37;10.23;;;5.68;;
65031;SDS011;51593;55.714;37.436;2022-12-18T05:12:03;12.98;;;6.60;;
65031;SDS011;51593;55.714;37.436;2022-12-18T05:14:33;12.27;;;6.07;;
65031;SDS011;51593;55.714;37.436;2022-12-18T05:16:59;11.07;;;5.93;;
65031;SDS011;51593;55.714;37.436;2022-12-18T05:19:24;11.98;;;5.80;;
65031;SDS011;51593;55.714;37.436;2022-12-18T05:21:50;9.10;;;5.07;;
65031;SDS011;51593;55.714;37.436;2022-12-18T05:24:16;12.48;;;6.07;;
65031;SDS011;51593;55.714;37.436;2022-12-18T05:26:41;10.20;;;5.28;;
65031;SDS011;51593;55.714;37.436;2022-12-18T05:29:07;8.32;;;4.10;;
65031;SDS011;51593;55.714;37.436;2022-12-18T05:31:33;11.75;;;6.20;;
65031;SDS011;51593;55.714;37.436;2022-12-18T05:33:59;11.48;;;5.80;;
65031;SDS011;51593;55.714;37.436;2022-12-18T05:36:24;10.82;;;5.97;;
65031;SDS011;51593;55.714;37.436;2022-12-18T05:38:50;11.48;;;6.28;;
65031;SDS011;51593;55.714;37.436;2022-12-18T05:41:16;12.25;;;6.22;;
65031;SDS011;51593;55.714;37.436;2022-12-18T05:43:42;12.93;;;6.25;;
65031;SDS011;51593;55.714;37.436;2022-12-18T05:46:11;14.50;;;6.68;;
65031;SDS011;51593;55.714;37.436;2022-12-18T05:48:38;11.05;;;5.75;;
65031;SDS011;51593;55.714;37.436;2022-12-18T05:51:05;9.25;;;5.13;;
65031;SDS011;51593;55.714;37.436;2022-12-18T05:53:32;9.77;;;5.72;;
65031;SDS011;51593;55.714;37.436;2022-12-18T05:56:02;13.25;;;5.95;;
65031;SDS011;51593;55.714;37.436;2022-12-18T05:58:29;10.25;;;5.70;;
65031;SDS011;51593;55.714;37.436;2022-12-18T06:00:55;12.10;;;5.53;;
65031;SDS011;51593;55.714;37.436;2022-12-18T06:03:21;11.88;;;5.85;;
65031;SDS011;51593;55.714;37.436;2022-12-18T06:05:47;9.88;;;4.82;;
65031;SDS011;51593;55.714;37.436;2022-12-18T06:08:13;13.13;;;5.72;;
65031;SDS011;51593;55.714;37.436;2022-12-18T06:10:39;12.05;;;5.97;;
65031;SDS011;51593;55.714;37.436;2022-12-18T06:13:05;9.93;;;5.40;;
65031;SDS011;51593;55.714;37.436;2022-12-18T06:15:31;11.82;;;5.85;;
65031;SDS011;51593;55.714;37.436;2022-12-18T06:17:59;13.73;;;6.45;;
65031;SDS011;51593;55.714;37.436;2022-12-18T06:20:25;11.23;;;5.85;;
65031;SDS011;51593;55.714;37.436;2022-12-18T06:22:53;13.15;;;6.68;;
65031;SDS011;51593;55.714;37.436;2022-12-18T06:25:18;12.07;;;5.30;;
65031;SDS011;51593;55.714;37.436;2022-12-18T06:27:47;11.20;;;6.05;;
65031;SDS011;51593;55.714;37.436;2022-12-18T06:30:14;11.35;;;6.03;;
65031;SDS011;51593;55.714;37.436;2022-12-18T06:32:40;11.68;;;5.80;;
65031;SDS011;51593;55.714;37.436;2022-12-18T06:35:06;9.60;;;5.57;;
65031;SDS011;51593;55.714;37.436;2022-12-18T06:37:32;10.80;;;5.63;;
65031;SDS011;51593;55.714;37.436;2022-12-18T06:40:00;11.20;;;6.10;;
65031;SDS011;51593;55.714;37.436;2022-12-18T06:42:31;10.63;;;5.97;;
65031;SDS011;51593;55.714;37.436;2022-12-18T06:44:57;9.80;;;5.05;;
65031;SDS011;51593;55.714;37.436;2022-12-18T06:47:23;12.57;;;6.10;;
65031;SDS011;51593;55.714;37.436;2022-12-18T06:49:48;10.93;;;5.10;;
65031;SDS011;51593;55.714;37.436;2022-12-18T06:52:16;9.70;;;5.07;;
65031;SDS011;51593;55.714;37.436;2022-12-18T06:54:43;8.70;;;4.72;;
65031;SDS011;51593;55.714;37.436;2022-12-18T06:57:08;9.68;;;5.53;;
65031;SDS011;51593;55.714;37.436;2022-12-18T06:59:35;13.05;;;6.40;;
65031;SDS011;51593;55.714;37.436;2022-12-18T07:02:01;9.00;;;5.40;;
65031;SDS011;51593;55.714;37.436;2022-12-18T07:04:27;11.55;;;6.13;;
65031;SDS011;51593;55.714;37.436;2022-12-18T07:06:54;9.38;;;5.25;;
65031;SDS011;51593;55.714;37.436;2022-12-18T07:09:22;12.15;;;5.57;;
65031;SDS011;51593;55.714;37.436;2022-12-18T07:11:47;11.07;;;6.00;;
65031;SDS011;51593;55.714;37.436;2022-12-18T07:14:13;10.10;;;5.68;;
65031;SDS011;51593;55.714;37.436;2022-12-18T07:16:39;10.25;;;5.60;;
65031;SDS011;51593;55.714;37.436;2022-12-18T07:19:05;9.52;;;5.65;;
65031;SDS011;51593;55.714;37.436;2022-12-18T07:21:31;9.45;;;5.28;;
65031;SDS011;51593;55.714;37.436;2022-12-18T07:23:57;12.07;;;5.93;;
65031;SDS011;51593;55.714;37.436;2022-12-18T07:26:23;11.48;;;5.85;;
65031;SDS011;51593;55.714;37.436;2022-12-18T07:28:49;10.20;;;5.75;;
65031;SDS011;51593;55.714;37.436;2022-12-18T07:31:17;10.93;;;5.88;;
65031;SDS011;51593;55.714;37.436;2022-12-18T07:33:44;9.57;;;5.03;;
65031;SDS011;51593;55.714;37.436;2022-12-18T07:36:10;12.27;;;6.15;;
65031;SDS011;51593;55.714;37.436;2022-12-18T07:38:36;11.23;;;6.00;;
65031;SDS011;51593;55.714;37.436;2022-12-18T07:41:03;9.20;;;5.10;;
65031;SDS011;51593;55.714;37.436;2022-12-18T07:43:30;9.30;;;5.43;;
65031;SDS011;51593;55.714;37.436;2022-12-18T07:45:55;9.88;;;5.13;;
65031;SDS011;51593;55.714;37.436;2022-12-18T07:48:21;11.63;;;5.65;;
65031;SDS011;51593;55.714;37.436;2022-12-18T07:50:47;9.55;;;5.22;;
65031;SDS011;51593;55.714;37.436;2022-12-18T07:53:13;9.93;;;5.28;;
65031;SDS011;51593;55.714;37.436;2022-12-18T07:55:40;10.75;;;5.47;;
65031;SDS011;51593;55.714;37.436;2022-12-18T07:58:06;10.27;;;5.38;;
65031;SDS011;51593;55.714;37.436;2022-12-18T08:00:33;13.93;;;7.28;;
65031;SDS011;51593;55.714;37.436;2022-12-18T08:02:59;11.13;;;5.63;;
65031;SDS011;51593;55.714;37.436;2022-12-18T08:05:25;9.55;;;5.50;;
65031;SDS011;51593;55.714;37.436;2022-12-18T08:07:51;8.82;;;4.38;;
65031;SDS011;51593;55.714;37.436;2022-12-18T08:10:17;9.65;;;5.50;;
65031;SDS011;51593;55.714;37.436;2022-12-18T08:12:43;9.77;;;5.55;;
65031;SDS011;51593;55.714;37.436;2022-12-18T08:15:09;9.93;;;5.45;;
65031;SDS011;51593;55.714;37.436;2022-12-18T08:17:35;8.40;;;4.53;;
65031;SDS011;51593;55.714;37.436;2022-12-18T08:20:00;10.13;;;4.85;;
65031;SDS011;51593;55.714;37.436;2022-12-18T08:22:27;16.63;;;5.68;;
65031;SDS011;51593;55.714;37.436;2022-12-18T08:24:52;9.77;;;4.53;;
65031;SDS011;51593;55.714;37.436;2022-12-18T08:27:18;11.23;;;5.32;;
65031;SDS011;51593;55.714;37.436;2022-12-18T08:29:44;9.52;;;5.38;;
65031;SDS011;51593;55.714;37.436;2022-12-18T08:32:10;9.77;;;5.38;;
65031;SDS011;51593;55.714;37.436;2022-12-18T08:34:35;10.43;;;5.30;;
65031;SDS011;51593;55.714;37.436;2022-12-18T08:37:01;11.80;;;5.35;;
65031;SDS011;51593;55.714;37.436;2022-12-18T08:39:27;11.43;;;5.70;;
65031;SDS011;51593;55.714;37.436;2022-12-18T08:41:53;10.05;;;5.00;;
65031;SDS011;51593;55.714;37.436;2022-12-18T08:44:37;11.05;;;5.03;;
65031;SDS011;51593;55.714;37.436;2022-12-18T08:47:03;12.93;;;5.78;;
65031;SDS011;51593;55.714;37.436;2022-12-18T08:49:29;9.70;;;5.18;;
65031;SDS011;51593;55.714;37.436;2022-12-18T08:51:55;11.40;;;5.47;;
65031;SDS011;51593;55.714;37.436;2022-12-18T08:54:22;11.88;;;5.25;;
65031;SDS011;51593;55.714;37.436;2022-12-18T08:56:48;9.50;;;4.28;;
65031;SDS011;51593;55.714;37.436;2022-12-18T08:59:17;12.00;;;4.88;;
65031;SDS011;51593;55.714;37.436;2022-12-18T09:01:43;9.82;;;5.18;;
65031;SDS011;51593;55.714;37.436;2022-12-18T09:04:09;9.13;;;5.10;;
65031;SDS011;51593;55.714;37.436;2022-12-18T09:06:35;11.00;;;4.40;;
65031;SDS011;51593;55.714;37.436;2022-12-18T09:09:02;11.15;;;4.95;;
65031;SDS011;51593;55.714;37.436;2022-12-18T09:11:29;10.23;;;5.20;;
65031;SDS011;51593;55.714;37.436;2022-12-18T09:13:55;9.98;;;4.93;;
65031;SDS011;51593;55.714;37.436;2022-12-18T09:16:22;9.25;;;4.60;;
65031;SDS011;51593;55.714;37.436;2022-12-18T09:18:49;9.65;;;4.93;;
65031;SDS011;51593;55.714;37.436;2022-12-18T09:21:18;10.10;;;4.85;;
65031;SDS011;51593;55.714;37.436;2022-12-18T09:23:49;10.63;;;5.45;;
65031;SDS011;51593;55.714;37.436;2022-12-18T09:26:16;12.23;;;5.22;;
65031;SDS011;51593;55.714;37.436;2022-12-18T09:28:42;9.70;;;4.93;;
65031;SDS011;51593;55.714;37.436;2022-12-18T09:31:08;11.77;;;5.40;;
65031;SDS011;51593;55.714;37.436;2022-12-18T09:33:37;8.50;;;4.43;;
65031;SDS011;51593;55.714;37.436;2022-12-18T09:36:03;8.98;;;5.20;;
65031;SDS011;51593;55.714;37.436;2022-12-18T09:38:32;11.45;;;4.70;;
65031;SDS011;51593;55.714;37.436;2022-12-18T09:41:16;10.77;;;4.97;;
65031;SDS011;51593;55.714;37.436;2022-12-18T09:43:48;10.93;;;4.40;;
65031;SDS011;51593;55.714;37.436;2022-12-18T09:46:18;7.90;;;4.05;;
65031;SDS011;51593;55.714;37.436;2022-12-18T09:48:51;10.70;;;5.28;;
65031;SDS011;51593;55.714;37.436;2022-12-18T09:51:26;9.15;;;4.43;;
65031;SDS011;51593;55.714;37.436;2022-12-18T09:53:55;7.28;;;4.05;;
65031;SDS011;51593;55.714;37.436;2022-12-18T09:56:33;8.82;;;4.80;;
65031;SDS011;51593;55.714;37.436;2022-12-18T09:59:02;8.68;;;4.13;;
65031;SDS011;51593;55.714;37.436;2022-12-18T10:01:28;9.13;;;4.07;;
65031;SDS011;51593;55.714;37.436;2022-12-18T10:03:55;9.45;;;4.97;;
65031;SDS011;51593;55.714;37.436;2022-12-18T10:09:03;9.63;;;4.72;;
65031;SDS011;51593;55.714;37.436;2022-12-18T10:22:48;9.75;;;4.53;;
65031;SDS011;51593;55.714;37.436;2022-12-18T10:27:54;7.15;;;4.03;;
65031;SDS011;51593;55.714;37.436;2022-12-18T10:30:24;8.57;;;4.22;;
65031;SDS011;51593;55.714;37.436;2022-12-18T10:32:50;7.18;;;3.92;;
65031;SDS011;51593;55.714;37.436;2022-12-18T10:35:25;10.82;;;4.95;;
65031;SDS011;51593;55.714;37.436;2022-12-18T10:40:49;13.50;;;4.32;;
65031;SDS011;51593;55.714;37.436;2022-12-18T10:46:17;12.00;;;4.30;;
65031;SDS011;51593;55.714;37.436;2022-12-18T10:51:21;7.75;;;4.32;;
65031;SDS011;51593;55.714;37.436;2022-12-18T10:53:57;8.75;;;4.38;;
65031;SDS011;51593;55.714;37.436;2022-12-18T10:56:26;8.98;;;4.43;;
65031;SDS011;51593;55.714;37.436;2022-12-18T10:59:11;7.85;;;3.92;;
65031;SDS011;51593;55.714;37.436;2022-12-18T11:01:52;9.88;;;4.82;;
65031;SDS011;51593;55.714;37.436;2022-12-18T11:04:30;8.65;;;4.65;;
65031;SDS011;51593;55.714;37.436;2022-12-18T11:07:01;9.65;;;4.13;;
65031;SDS011;51593;55.714;37.436;2022-12-18T11:09:29;8.48;;;4.43;;
65031;SDS011;51593;55.714;37.436;2022-12-18T11:11:58;8.57;;;4.28;;
65031;SDS011;51593;55.714;37.436;2022-12-18T11:17:16;7.97;;;4.25;;
